Time;durP1;ratioP1;P1;durP2;ratioP2;P2;SDS_P1;SDS_P2;PMS_P1;PMS_P2;Temp;Humidity;BMP_temperature;BMP_pressure;BME280_temperature;BME280_humidity;BME280_pressure;Samples;Min_cycle;Max_cycle;Signal;HPM_P1;HPM_P2
2022/01/22 00:01:04;;;;;;;15.50;6.45;;;-0.40;96.30;;;;;;5033539;28;20063;-82
2022/01/22 00:03:33;;;;;;;13.20;7.38;;;-0.40;95.90;;;;;;5017644;28;20532;-81
2022/01/22 00:06:00;;;;;;;13.32;7.82;;;-0.20;95.90;;;;;;5033409;28;20032;-81
2022/01/22 00:08:27;;;;;;;12.10;6.30;;;0.00;95.20;;;;;;5017419;28;20075;-82
2022/01/22 00:10:55;;;;;;;15.18;6.80;;;-0.20;93.80;;;;;;5033406;28;20374;-82
2022/01/22 00:16:09;;;;;;;8.85;6.15;;;-0.50;93.40;;;;;;5033433;28;20429;-81
2022/01/22 00:18:37;;;;;;;6.78;5.47;;;-0.60;93.50;;;;;;5051635;28;20033;-81
2022/01/22 00:21:04;;;;;;;11.60;5.38;;;-0.50;93.20;;;;;;5051065;28;20053;-82
2022/01/22 00:23:32;;;;;;;8.57;6.10;;;-0.40;91.70;;;;;;5033646;28;20051;-83
2022/01/22 00:25:59;;;;;;;14.00;6.15;;;-0.30;91.50;;;;;;5016973;28;20591;-83
2022/01/22 00:28:27;;;;;;;11.40;6.82;;;0.00;90.60;;;;;;5033318;28;20059;-82
2022/01/22 00:30:54;;;;;;;8.63;6.15;;;0.00;90.40;;;;;;5036729;28;20045;-83
2022/01/22 00:33:21;;;;;;;5.82;5.10;;;-0.10;90.00;;;;;;5037185;28;20373;-81
2022/01/22 00:35:49;;;;;;;7.80;5.25;;;0.00;87.30;;;;;;5019874;28;20512;-82
2022/01/22 00:38:16;;;;;;;6.22;5.10;;;-0.10;88.50;;;;;;5054886;28;20384;-82
2022/01/22 00:40:50;;;;;;;7.10;5.18;;;0.10;87.70;;;;;;5054379;28;20055;-82
2022/01/22 00:43:18;;;;;;;5.80;4.90;;;0.10;86.80;;;;;;5020223;28;20044;-81
2022/01/22 00:45:46;;;;;;;9.57;5.50;;;0.10;87.20;;;;;;5036775;28;20125;-81
2022/01/22 00:48:13;;;;;;;10.38;5.95;;;-0.10;89.40;;;;;;5054272;28;20412;-83
2022/01/22 00:50:41;;;;;;;8.02;5.72;;;-0.10;90.70;;;;;;5036651;28;20064;-81
2022/01/22 00:53:08;;;;;;;7.72;5.53;;;-0.20;89.60;;;;;;5036931;28;20433;-82
2022/01/22 00:55:36;;;;;;;8.13;5.78;;;-0.10;87.80;;;;;;5036409;28;20041;-81
2022/01/22 00:58:03;;;;;;;7.95;5.47;;;-0.30;88.20;;;;;;5036220;28;20045;-83
2022/01/22 01:00:31;;;;;;;8.90;5.07;;;-0.60;89.50;;;;;;5036478;28;20052;-83
2022/01/22 01:02:58;;;;;;;7.97;5.15;;;-0.40;87.00;;;;;;5054420;28;20044;-82
2022/01/22 01:05:26;;;;;;;6.15;5.55;;;-0.20;87.10;;;;;;5053773;28;20044;-82
2022/01/22 01:07:53;;;;;;;6.22;4.55;;;-0.40;84.30;;;;;;5036424;28;20045;-82
2022/01/22 01:10:21;;;;;;;6.15;5.25;;;-0.40;83.60;;;;;;5019787;28;20041;-83
2022/01/22 01:12:50;;;;;;;5.65;4.70;;;-0.40;84.10;;;;;;5036071;28;20052;-82
2022/01/22 01:16:00;;;;;;;8.30;4.88;;;-0.20;82.70;;;;;;5017151;28;20131;-81
2022/01/22 01:34:41;;;;;;;5.05;4.32;;;-0.70;82.30;;;;;;5016333;28;20053;-82
2022/01/22 01:37:11;;;;;;;5.93;4.60;;;-0.60;81.90;;;;;;5033837;28;20041;-80
2022/01/22 01:39:39;;;;;;;7.72;4.80;;;-0.80;83.60;;;;;;5033973;28;20397;-83
2022/01/22 01:42:12;;;;;;;6.15;4.45;;;-0.60;83.60;;;;;;5016568;28;20046;-80
2022/01/22 01:44:40;;;;;;;5.28;4.70;;;-0.70;83.80;;;;;;5015880;28;20049;-82
2022/01/22 01:47:12;;;;;;;5.10;4.60;;;-0.60;83.80;;;;;;5016233;28;20038;-84
2022/01/22 01:49:39;;;;;;;7.53;4.35;;;-0.60;82.80;;;;;;5016018;28;20049;-80
2022/01/22 01:52:12;;;;;;;5.20;4.68;;;-0.50;80.80;;;;;;5033714;28;20073;-81
2022/01/22 01:55:02;;;;;;;5.20;4.70;;;-0.70;82.70;;;;;;4999809;28;20049;-83
2022/01/22 01:57:42;;;;;;;12.38;5.30;;;-0.70;83.00;;;;;;5016226;28;20428;-80
2022/01/22 02:00:30;;;;;;;5.20;4.70;;;-0.70;83.60;;;;;;5015833;28;20049;-80
2022/01/22 02:02:59;;;;;;;10.07;5.03;;;-0.80;83.00;;;;;;5015664;28;20042;-81
2022/01/22 02:05:26;;;;;;;4.07;3.67;;;-0.90;83.20;;;;;;5015721;28;20543;-80
2022/01/22 02:07:55;;;;;;;4.80;4.40;;;-1.00;82.60;;;;;;5015697;28;20049;-82
2022/01/22 02:10:27;;;;;;;7.18;4.70;;;-0.90;82.40;;;;;;5015700;28;20456;-81
2022/01/22 02:23:49;;;;;;;;;;;-0.60;82.70;;;;;;5053691;28;20041;-81
2022/01/22 02:26:18;;;;;;;5.47;4.53;;;-0.50;82.60;;;;;;5034983;28;19921;-81
2022/01/22 02:28:50;;;;;;;4.57;4.07;;;-0.50;82.80;;;;;;5035558;28;20470;-81
2022/01/22 02:31:28;;;;;;;4.72;4.22;;;-0.50;83.30;;;;;;5018629;28;20051;-82
2022/01/22 02:34:08;;;;;;;4.78;4.38;;;-0.50;83.60;;;;;;5035014;28;20060;-82
2022/01/22 02:39:35;;;;;;;5.38;4.63;;;-0.50;83.90;;;;;;5034823;28;20048;-81
2022/01/22 02:42:03;;;;;;;5.97;4.70;;;-0.50;84.20;;;;;;5035006;28;20451;-82
2022/01/22 02:44:35;;;;;;;7.80;4.68;;;-0.60;84.20;;;;;;5018346;28;20249;-81
2022/01/22 02:47:08;;;;;;;8.23;5.07;;;-0.70;84.20;;;;;;5018502;28;20051;-82
2022/01/22 02:49:36;;;;;;;6.80;4.82;;;-0.50;84.30;;;;;;5017936;28;20045;-82
2022/01/22 02:52:09;;;;;;;6.60;4.85;;;-0.60;83.90;;;;;;5033727;28;20056;-82
2022/01/22 02:54:39;;;;;;;7.55;4.90;;;-0.70;83.40;;;;;;5052280;28;20037;-82
2022/01/22 02:57:08;;;;;;;5.10;4.53;;;-0.70;84.90;;;;;;5034335;28;20126;-82
2022/01/22 02:59:36;;;;;;;6.47;4.93;;;-1.00;84.00;;;;;;5018248;28;20404;-81
2022/01/22 03:02:05;;;;;;;7.78;4.75;;;-1.00;83.50;;;;;;5052284;28;20045;-82
2022/01/22 03:04:32;;;;;;;5.05;4.60;;;-0.90;83.60;;;;;;5034303;28;20163;-79
2022/01/22 03:07:00;;;;;;;4.47;4.07;;;-1.10;83.30;;;;;;5034522;28;20460;-82
2022/01/22 03:09:30;;;;;;;4.40;4.00;;;-1.10;83.60;;;;;;5052230;28;20037;-82
2022/01/22 03:23:05;;;;;;;7.82;4.85;;;-1.40;89.10;;;;;;5051997;28;20048;-81
2022/01/22 03:28:19;;;;;;;7.88;5.50;;;-1.30;91.30;;;;;;5033818;28;20080;-82
2022/01/22 03:30:47;;;;;;;6.53;5.32;;;-1.50;91.70;;;;;;5034248;28;20047;-83
2022/01/22 03:33:18;;;;;;;5.45;4.90;;;-1.60;92.10;;;;;;5034422;28;20052;-82
2022/01/22 03:35:53;;;;;;;7.57;5.07;;;-1.90;93.60;;;;;;5034110;28;20397;-81
2022/01/22 03:38:21;;;;;;;7.35;5.50;;;-1.90;94.70;;;;;;5052533;28;20084;-81
2022/01/22 03:40:49;;;;;;;7.07;5.00;;;-2.00;95.60;;;;;;5034666;28;20412;-81
2022/01/22 03:43:19;;;;;;;7.05;5.90;;;-2.10;96.40;;;;;;5018047;28;20045;-82
2022/01/22 03:45:46;;;;;;;5.60;5.05;;;-2.20;96.90;;;;;;5034761;28;20408;-79
2022/01/22 03:48:16;;;;;;;16.63;6.23;;;-2.40;98.50;;;;;;5034328;28;20073;-81
2022/01/22 03:50:43;;;;;;;6.50;5.80;;;-2.40;99.10;;;;;;5018091;28;20033;-83
2022/01/22 03:53:10;;;;;;;7.97;5.30;;;-2.40;99.50;;;;;;5017856;28;20078;-82
2022/01/22 03:58:05;;;;;;;6.07;5.07;;;-2.10;98.20;;;;;;5033874;28;20037;-83
2022/01/22 04:00:33;;;;;;;6.47;5.43;;;-2.20;98.70;;;;;;5034195;28;20049;-82
2022/01/22 04:05:32;;;;;;;6.18;5.55;;;-2.10;99.50;;;;;;5037792;28;20056;-81
2022/01/22 04:08:18;;;;;;;7.35;5.65;;;-2.10;99.40;;;;;;5037763;28;20100;-82
2022/01/22 04:10:46;;;;;;;6.60;5.15;;;-2.20;99.60;;;;;;5020999;28;20045;-83
2022/01/22 04:13:16;;;;;;;9.57;4.93;;;-2.20;99.70;;;;;;5020982;28;20068;-81
2022/01/22 04:15:45;;;;;;;6.15;5.55;;;-2.30;99.70;;;;;;5037817;28;20071;-80
2022/01/22 04:29:22;;;;;;;6.75;5.65;;;-1.90;99.40;;;;;;5037406;28;20049;-84
2022/01/22 04:31:57;;;;;;;14.75;5.50;;;-2.10;99.20;;;;;;5054842;28;20051;-81
2022/01/22 04:34:49;;;;;;;6.75;5.82;;;-2.30;99.60;;;;;;5037301;28;20052;-81
2022/01/22 04:37:22;;;;;;;7.28;5.20;;;-2.30;99.60;;;;;;5021548;28;20433;-82
2022/01/22 04:39:53;;;;;;;7.25;6.10;;;-2.30;99.80;;;;;;5037288;28;20385;-82
2022/01/22 04:42:20;;;;;;;8.77;5.32;;;-2.00;99.20;;;;;;5021043;28;20071;-81
2022/01/22 04:45:11;;;;;;;7.15;5.28;;;-2.10;97.90;;;;;;5036856;28;20045;-83
2022/01/22 04:55:42;;;;;;;7.90;5.85;;;-1.90;99.00;;;;;;5036895;28;20463;-84
2022/01/22 04:58:10;;;;;;;5.53;4.93;;;-1.80;98.90;;;;;;5020169;28;20408;-82
2022/01/22 05:00:41;;;;;;;14.15;5.30;;;-2.10;98.00;;;;;;5054530;28;20041;-83
2022/01/22 05:03:09;;;;;;;6.53;5.68;;;-1.80;99.30;;;;;;5020610;28;20049;-81
2022/01/22 05:05:36;;;;;;;6.50;4.97;;;-2.10;98.50;;;;;;5019866;28;20542;-82
2022/01/22 05:08:04;;;;;;;8.30;5.20;;;-2.30;99.90;;;;;;5054364;28;20433;-81
2022/01/22 05:10:31;;;;;;;5.65;5.13;;;-2.40;99.90;;;;;;5054217;28;20083;-83
2022/01/22 05:12:59;;;;;;;8.40;6.07;;;-2.70;99.90;;;;;;5036455;28;20040;-81
2022/01/22 05:15:26;;;;;;;6.78;5.32;;;-2.50;99.90;;;;;;5033446;28;20045;-82
2022/01/22 05:18:01;;;;;;;6.03;5.43;;;-2.30;99.90;;;;;;5001058;28;20060;-82
2022/01/22 05:20:33;;;;;;;8.88;5.97;;;-2.40;99.90;;;;;;5016544;28;20057;-83
2022/01/22 05:23:22;;;;;;;11.70;6.07;;;-2.80;99.90;;;;;;5016500;28;20056;-82
2022/01/22 05:26:00;;;;;;;7.90;5.53;;;-2.60;99.90;;;;;;5000244;28;20458;-82
2022/01/22 05:37:03;;;;;;;7.50;5.70;;;-3.20;99.90;;;;;;4972360;28;20077;-80
2022/01/22 05:39:33;;;;;;;7.07;4.82;;;-3.40;99.90;;;;;;4956839;28;20054;-80
2022/01/22 05:42:03;;;;;;;12.90;6.47;;;-3.40;99.90;;;;;;4956603;28;20169;-81
2022/01/22 05:44:32;;;;;;;6.60;5.75;;;-3.00;99.90;;;;;;4972318;28;20046;-84
2022/01/22 05:47:04;;;;;;;7.03;5.75;;;-3.10;99.90;;;;;;4940722;28;20481;-82
2022/01/22 05:49:36;;;;;;;9.30;6.20;;;-3.20;99.90;;;;;;4940450;28;20129;-83
2022/01/22 05:52:07;;;;;;;6.30;4.88;;;-3.40;99.90;;;;;;4956399;28;20058;-82
2022/01/22 06:00:07;;;;;;;8.70;7.18;;;-2.90;99.90;;;;;;4972471;28;20157;-81
2022/01/22 06:02:34;;;;;;;7.28;6.50;;;-2.70;99.90;;;;;;5009407;28;20061;-80
2022/01/22 06:05:02;;;;;;;7.93;6.03;;;-3.20;99.90;;;;;;5015930;28;20048;-81
2022/01/22 06:07:29;;;;;;;6.70;5.65;;;-3.30;99.90;;;;;;5033027;28;20045;-82
2022/01/22 06:14:56;;;;;;;;;;;-3.20;99.90;;;;;;5028861;28;20053;-84
2022/01/22 06:17:24;;;;;;;9.85;6.93;;;-3.20;99.90;;;;;;5015760;28;19928;-83
2022/01/22 06:19:51;;;;;;;11.20;7.22;;;-3.10;99.90;;;;;;5032956;28;20435;-84
2022/01/22 06:22:18;;;;;;;6.95;5.95;;;-2.90;99.90;;;;;;5032941;28;20120;-85
2022/01/22 06:24:45;;;;;;;9.13;7.10;;;-2.80;99.90;;;;;;5031832;28;20049;-84
2022/01/22 06:27:13;;;;;;;11.43;7.00;;;-2.60;99.90;;;;;;5031783;28;20049;-83
2022/01/22 06:29:40;;;;;;;8.75;6.35;;;-2.40;99.90;;;;;;5015344;28;20519;-81
2022/01/22 06:32:08;;;;;;;12.75;7.40;;;-2.40;99.90;;;;;;5033100;28;20456;-83
2022/01/22 06:34:35;;;;;;;10.18;7.68;;;-2.40;99.90;;;;;;5033156;28;20048;-81
2022/01/22 06:37:03;;;;;;;8.52;6.65;;;-2.40;99.90;;;;;;5033423;28;20448;-83
2022/01/22 06:39:40;;;;;;;11.05;7.60;;;-2.30;99.90;;;;;;5017701;28;20041;-82
2022/01/22 06:42:08;;;;;;;9.77;6.57;;;-2.50;99.90;;;;;;5016696;28;20080;-81
2022/01/22 06:44:37;;;;;;;7.63;6.40;;;-2.40;99.90;;;;;;5031372;28;20042;-81
2022/01/22 06:47:05;;;;;;;10.30;6.90;;;-3.10;99.90;;;;;;5031153;28;20053;-81
2022/01/22 06:49:33;;;;;;;9.77;6.82;;;-2.90;99.90;;;;;;5031268;28;20049;-82
2022/01/22 06:52:00;;;;;;;11.43;7.38;;;-2.70;99.90;;;;;;5031502;28;20176;-80
2022/01/22 06:54:27;;;;;;;11.80;7.30;;;-3.00;99.90;;;;;;5014992;28;20160;-80
2022/01/22 06:56:55;;;;;;;8.80;7.47;;;-2.80;99.90;;;;;;5014664;28;20049;-84
2022/01/22 06:59:22;;;;;;;11.88;6.93;;;-2.70;99.90;;;;;;5032345;28;20552;-82
2022/01/22 07:01:54;;;;;;;13.23;7.63;;;-2.50;99.90;;;;;;5031249;28;20084;-82
2022/01/22 07:04:22;;;;;;;14.93;6.93;;;-3.00;99.90;;;;;;5031320;28;20045;-82
2022/01/22 07:06:49;;;;;;;11.82;6.35;;;-2.70;99.90;;;;;;5031064;28;20045;-84
2022/01/22 07:09:16;;;;;;;8.70;6.78;;;-3.20;99.90;;;;;;5032187;28;20052;-80
2022/01/22 07:11:44;;;;;;;7.47;6.68;;;-3.40;99.90;;;;;;5031921;28;20056;-81
2022/01/22 07:14:14;;;;;;;;;;;-2.90;99.90;;;;;;5025042;28;20099;-78
2022/01/22 07:16:42;;;;;;;6.65;5.70;;;-3.10;99.90;;;;;;4998250;28;20369;-82
2022/01/22 07:19:09;;;;;;;9.77;6.32;;;-2.90;99.90;;;;;;5014457;28;20038;-82
2022/01/22 07:21:41;;;;;;;13.70;8.13;;;-2.50;99.90;;;;;;5014504;28;20054;-82
2022/01/22 07:24:23;;;;;;;10.55;7.50;;;-2.40;99.90;;;;;;4998441;28;20037;-82
2022/01/22 07:26:51;;;;;;;10.77;8.15;;;-2.40;99.90;;;;;;5014377;28;20042;-82
2022/01/22 07:29:18;;;;;;;13.63;8.38;;;-2.10;99.90;;;;;;4998184;28;20418;-84
2022/01/22 07:31:45;;;;;;;8.88;7.43;;;-1.60;99.90;;;;;;4998234;28;20408;-81
2022/01/22 07:34:13;;;;;;;11.82;7.50;;;-1.40;99.20;;;;;;5013793;28;20536;-82
2022/01/22 07:36:40;;;;;;;10.95;7.10;;;-1.40;98.50;;;;;;5031553;28;20393;-83
2022/01/22 07:39:08;;;;;;;10.02;7.68;;;-1.20;97.70;;;;;;5016583;28;20068;-81
2022/01/22 07:41:37;;;;;;;8.32;6.95;;;-1.20;96.40;;;;;;5001823;28;20052;-82
2022/01/22 07:44:05;;;;;;;13.13;7.47;;;-1.10;97.10;;;;;;5017911;28;20444;-82
2022/01/22 07:46:32;;;;;;;15.23;8.18;;;-0.80;95.90;;;;;;5017895;28;20041;-83
2022/01/22 07:48:59;;;;;;;14.35;7.93;;;-0.80;95.20;;;;;;5017959;28;20049;-81
2022/01/22 07:51:27;;;;;;;13.25;8.15;;;-0.70;94.80;;;;;;5001629;28;20640;-82
2022/01/22 07:53:54;;;;;;;13.73;8.13;;;-0.60;94.20;;;;;;5001648;28;20060;-83
2022/01/22 07:56:22;;;;;;;11.38;8.05;;;-0.60;93.70;;;;;;5017914;28;20141;-83
2022/01/22 07:58:49;;;;;;;10.75;7.40;;;-0.40;93.20;;;;;;5001893;28;20049;-82
2022/01/22 08:01:17;;;;;;;11.50;7.90;;;-0.20;92.50;;;;;;5017887;28;20048;-82
2022/01/22 08:03:44;;;;;;;14.10;9.45;;;0.10;92.20;;;;;;5001845;28;20064;-83
2022/01/22 08:06:12;;;;;;;19.35;10.60;;;0.10;93.50;;;;;;5001727;28;20052;-83
2022/01/22 08:08:40;;;;;;;16.77;10.77;;;0.00;94.50;;;;;;5001900;28;20053;-83
2022/01/22 08:11:08;;;;;;;16.35;10.95;;;0.10;93.30;;;;;;5001293;28;20049;-83
2022/01/22 08:13:35;;;;;;;16.90;10.70;;;0.30;92.80;;;;;;5018148;28;20068;-83
2022/01/22 08:16:03;;;;;;;18.38;10.57;;;0.50;93.00;;;;;;5001461;28;20100;-83
2022/01/22 08:18:30;;;;;;;16.85;10.60;;;0.40;92.00;;;;;;5017569;28;20097;-84
2022/01/22 08:20:58;;;;;;;19.98;10.30;;;0.80;91.80;;;;;;5017717;28;20092;-85
2022/01/22 08:23:25;;;;;;;16.02;10.40;;;1.20;91.40;;;;;;5001325;28;20053;-85
2022/01/22 08:26:17;;;;;;;18.75;11.13;;;1.40;90.60;;;;;;5001817;28;20072;-84
2022/01/22 08:28:53;;;;;;;19.63;11.05;;;1.50;89.30;;;;;;5001594;28;20416;-84
2022/01/22 08:37:24;;;;;;;21.42;11.57;;;1.40;89.10;;;;;;5010983;28;20053;-83
2022/01/22 08:39:52;;;;;;;29.17;15.63;;;1.40;89.60;;;;;;5017142;28;20043;-83
2022/01/22 08:42:29;;;;;;;29.13;15.98;;;1.40;90.30;;;;;;5016908;28;20045;-83
2022/01/22 08:44:56;;;;;;;23.58;14.18;;;1.30;90.30;;;;;;5034886;28;20051;-84
2022/01/22 08:47:24;;;;;;;29.50;14.85;;;1.30;88.30;;;;;;5017088;28;20484;-84
2022/01/22 08:49:57;;;;;;;24.63;14.30;;;1.00;90.40;;;;;;5016123;28;20042;-83
2022/01/22 08:52:31;;;;;;;24.45;13.48;;;1.50;90.70;;;;;;5016780;28;20056;-85
2022/01/22 08:54:59;;;;;;;27.85;13.88;;;1.50;89.00;;;;;;5016649;28;20041;-85
2022/01/22 08:57:28;;;;;;;22.55;12.07;;;1.60;89.80;;;;;;4984970;28;20050;-85
2022/01/22 09:00:06;;;;;;;16.35;11.82;;;1.40;88.50;;;;;;5016678;28;20121;-84
2022/01/22 09:04:01;;;;;;;16.50;10.35;;;1.80;86.70;;;;;;5017167;28;20075;-83
2022/01/22 09:10:38;;;;;;;18.60;10.60;;;1.80;86.10;;;;;;5002243;28;20042;-83
2022/01/22 09:13:12;;;;;;;21.33;10.23;;;2.10;83.40;;;;;;5017302;28;20045;-85
2022/01/22 09:16:11;;;;;;;;;;;;;;;;;;;;;
2022/01/22 09:19:09;;;;;;;17.15;10.68;;;2.00;82.40;;;;;;5036350;28;20047;-84
2022/01/22 09:21:52;;;;;;;17.25;10.73;;;2.40;82.80;;;;;;5036575;28;20067;-84
2022/01/22 09:25:26;;;;;;;16.55;11.40;;;2.40;80.90;;;;;;5029290;28;20102;-83
2022/01/22 09:27:54;;;;;;;17.90;10.70;;;2.30;82.30;;;;;;5019724;28;20401;-83
2022/01/22 09:30:31;;;;;;;17.13;11.52;;;2.80;81.90;;;;;;5020678;28;20502;-84
2022/01/22 09:32:58;;;;;;;17.33;11.88;;;3.20;80.40;;;;;;5019727;28;20056;-84
2022/01/22 09:35:26;;;;;;;15.98;11.00;;;3.40;77.40;;;;;;5036171;28;20057;-84
2022/01/22 09:37:53;;;;;;;21.38;11.15;;;3.40;77.40;;;;;;5019460;28;20448;-83
2022/01/22 09:40:21;;;;;;;16.90;11.57;;;3.30;76.70;;;;;;5019695;28;20461;-83
2022/01/22 09:42:48;;;;;;;17.90;11.48;;;3.60;75.30;;;;;;5035832;28;20049;-83
2022/01/22 09:45:17;;;;;;;19.30;11.07;;;3.80;75.30;;;;;;5019235;28;20041;-83
2022/01/22 09:47:47;;;;;;;17.17;12.07;;;3.90;74.10;;;;;;5036120;28;20068;-85
2022/01/22 09:50:18;;;;;;;25.70;13.25;;;3.60;75.00;;;;;;5035539;28;20044;-85
2022/01/22 09:52:49;;;;;;;24.25;14.45;;;3.70;73.70;;;;;;5019443;28;20044;-84
2022/01/22 09:55:21;;;;;;;21.77;14.10;;;3.40;75.10;;;;;;5035870;28;20381;-84
2022/01/22 09:57:49;;;;;;;20.90;13.30;;;3.70;74.60;;;;;;5019268;28;20040;-84
2022/01/22 10:00:20;;;;;;;17.63;11.95;;;4.20;73.40;;;;;;5035990;28;20125;-85
2022/01/22 10:02:51;;;;;;;18.15;10.70;;;4.60;71.40;;;;;;5020111;28;20049;-84
2022/01/22 10:05:37;;;;;;;15.45;10.35;;;4.10;67.20;;;;;;5037084;28;20397;-84
2022/01/22 10:08:17;;;;;;;15.75;10.15;;;4.40;66.50;;;;;;5054549;28;20469;-83
2022/01/22 10:10:46;;;;;;;13.68;9.43;;;4.20;65.90;;;;;;5035682;28;20146;-84
2022/01/22 10:13:14;;;;;;;12.65;9.15;;;4.30;65.80;;;;;;5035120;28;20048;-84
2022/01/22 10:15:42;;;;;;;11.93;8.55;;;4.70;63.60;;;;;;5053331;28;20053;-85
2022/01/22 10:18:09;;;;;;;13.40;8.88;;;5.00;62.60;;;;;;5018895;28;20041;-84
2022/01/22 10:20:39;;;;;;;12.70;9.10;;;5.30;62.50;;;;;;5035358;28;20555;-84
2022/01/22 10:23:09;;;;;;;13.45;9.52;;;5.00;62.50;;;;;;5035539;28;20094;-85
2022/01/22 10:25:44;;;;;;;13.70;9.77;;;4.90;65.30;;;;;;5018723;28;20143;-84
2022/01/22 10:28:19;;;;;;;16.92;10.70;;;5.50;64.80;;;;;;5035028;28;20064;-87
2022/01/22 10:30:51;;;;;;;17.52;11.10;;;5.90;62.60;;;;;;5034900;28;20040;-85
2022/01/22 10:35:52;;;;;;;11.63;7.82;;;5.80;62.30;;;;;;5052290;28;20049;-83
2022/01/22 10:38:21;;;;;;;10.65;7.40;;;5.90;57.40;;;;;;5052418;28;20045;-83
2022/01/22 10:40:56;;;;;;;13.23;8.90;;;5.50;57.70;;;;;;5018734;28;20045;-85
2022/01/22 10:43:30;;;;;;;9.93;7.07;;;5.30;58.90;;;;;;5018501;28;20059;-85
2022/01/22 10:46:01;;;;;;;6.38;4.97;;;5.50;56.40;;;;;;5034529;28;20043;-83
2022/01/22 10:48:28;;;;;;;6.57;4.70;;;4.80;54.00;;;;;;5034456;28;20436;-83
2022/01/22 10:51:15;;;;;;;8.48;6.10;;;4.80;53.40;;;;;;5034594;28;20067;-83
2022/01/22 10:53:52;;;;;;;8.40;5.03;;;5.20;57.10;;;;;;5052349;28;20311;-82
2022/01/22 10:56:22;;;;;;;6.80;5.22;;;5.70;53.50;;;;;;5018112;28;20047;-82
2022/01/22 10:59:07;;;;;;;5.60;4.35;;;5.20;52.80;;;;;;5034092;28;20488;-83
2022/01/22 11:01:44;;;;;;;5.20;4.45;;;5.30;52.50;;;;;;5034480;28;20127;-84
2022/01/22 11:04:14;;;;;;;6.30;4.20;;;4.80;51.90;;;;;;5034177;28;20490;-84
2022/01/22 11:07:08;;;;;;;6.00;3.83;;;4.50;50.60;;;;;;5051890;28;20041;-84
2022/01/22 11:09:50;;;;;;;5.53;4.00;;;4.30;51.60;;;;;;5036495;28;20114;-81
2022/01/22 11:12:18;;;;;;;7.90;3.70;;;4.40;51.80;;;;;;5017985;28;20039;-82
2022/01/22 11:14:45;;;;;;;5.25;4.00;;;5.20;51.30;;;;;;5006215;28;20057;-84
2022/01/22 11:17:14;;;;;;;5.25;4.05;;;5.00;50.00;;;;;;5014466;28;20042;-85
2022/01/22 11:19:45;;;;;;;4.97;3.92;;;4.40;51.40;;;;;;4998025;28;20049;-83
2022/01/22 11:22:18;;;;;;;8.00;4.70;;;4.40;51.70;;;;;;5014350;28;20051;-82
2022/01/22 11:24:47;;;;;;;5.45;4.10;;;4.20;52.20;;;;;;4998125;28;20049;-83
2022/01/22 11:27:21;;;;;;;6.90;4.72;;;4.00;53.00;;;;;;5031873;28;20148;-83
2022/01/22 11:29:57;;;;;;;4.90;4.20;;;3.80;53.20;;;;;;5014620;28;20143;-84
2022/01/22 11:32:40;;;;;;;6.35;4.85;;;3.90;53.10;;;;;;5027777;28;20056;-81
2022/01/22 11:35:09;;;;;;;5.55;4.55;;;4.10;52.00;;;;;;5014211;28;20058;-84
2022/01/22 11:37:47;;;;;;;5.55;4.40;;;3.90;51.90;;;;;;5014229;28;20080;-82
2022/01/22 11:40:24;;;;;;;7.60;4.50;;;3.80;52.20;;;;;;4997706;28;20054;-83
2022/01/22 11:43:06;;;;;;;9.73;4.38;;;4.00;52.30;;;;;;5014123;28;20374;-83
2022/01/22 11:45:43;;;;;;;7.20;4.55;;;4.30;52.70;;;;;;5031503;28;20157;-84
2022/01/22 11:48:25;;;;;;;4.47;4.03;;;4.20;52.10;;;;;;5014082;28;20049;-84
2022/01/22 11:50:55;;;;;;;7.82;4.65;;;3.90;52.10;;;;;;5032039;28;20370;-83
2022/01/22 11:53:34;;;;;;;5.53;4.68;;;3.90;52.40;;;;;;5031730;28;20061;-84
2022/01/22 11:56:10;;;;;;;7.20;4.40;;;3.80;52.80;;;;;;5013842;28;20046;-85
2022/01/22 11:58:56;;;;;;;6.22;4.60;;;4.10;53.20;;;;;;5013577;28;20199;-84
2022/01/22 12:01:50;;;;;;;6.22;4.88;;;4.60;52.30;;;;;;4994306;28;20053;-83
2022/01/22 12:04:20;;;;;;;5.03;4.45;;;4.70;52.60;;;;;;4994036;28;20464;-84
2022/01/22 12:07:02;;;;;;;10.90;4.88;;;4.80;52.10;;;;;;4978003;28;20049;-84
2022/01/22 12:09:33;;;;;;;6.97;4.82;;;4.70;52.60;;;;;;4994722;28;20395;-83
2022/01/22 12:15:30;;;;;;;6.15;4.72;;;4.20;51.20;;;;;;5011100;28;20049;-85
2022/01/22 12:18:09;;;;;;;6.30;4.85;;;4.40;51.60;;;;;;5013540;28;20481;-84
2022/01/22 12:23:33;;;;;;;5.47;4.35;;;4.60;51.40;;;;;;5014265;28;20302;-85
2022/01/22 12:26:02;;;;;;;5.90;4.70;;;4.70;52.30;;;;;;5034776;28;20045;-83
2022/01/22 12:28:41;;;;;;;5.78;4.50;;;4.90;51.90;;;;;;5001011;28;20393;-83
2022/01/22 12:31:19;;;;;;;5.65;4.60;;;5.10;51.90;;;;;;5017229;28;20442;-83
2022/01/22 12:33:53;;;;;;;8.38;5.90;;;5.10;51.60;;;;;;5000741;28;20446;-84
2022/01/22 12:36:39;;;;;;;8.13;5.75;;;5.20;54.10;;;;;;5000905;28;20560;-84
2022/01/22 12:39:15;;;;;;;9.20;6.72;;;5.20;55.20;;;;;;5000440;28;20052;-85
2022/01/22 12:41:54;;;;;;;9.05;6.50;;;5.40;56.30;;;;;;5017041;28;20042;-84
2022/01/22 12:47:00;;;;;;;11.98;7.05;;;4.80;54.80;;;;;;5017076;28;20054;-85
2022/01/22 12:49:29;;;;;;;10.25;6.10;;;5.10;55.30;;;;;;5017020;28;20038;-85
2022/01/22 12:51:59;;;;;;;12.02;7.13;;;5.20;56.30;;;;;;5000792;28;20054;-86
2022/01/22 12:54:28;;;;;;;9.68;7.28;;;5.50;56.30;;;;;;5034458;28;20048;-84
2022/01/22 12:57:09;;;;;;;11.05;6.82;;;5.50;56.30;;;;;;5016680;28;20064;-86
2022/01/22 12:59:50;;;;;;;10.45;6.70;;;5.10;57.00;;;;;;5022677;28;20049;-84
2022/01/22 13:02:41;;;;;;;10.85;6.53;;;5.20;56.20;;;;;;5054139;28;20033;-84
2022/01/22 13:05:13;;;;;;;15.65;6.68;;;5.10;56.10;;;;;;5037063;28;20047;-85
2022/01/22 13:07:51;;;;;;;9.55;7.13;;;5.70;54.90;;;;;;5036715;28;20472;-85
2022/01/22 13:10:22;;;;;;;9.57;7.05;;;6.00;54.60;;;;;;5053758;28;20590;-85
2022/01/22 13:13:14;;;;;;;9.82;6.43;;;6.20;54.20;;;;;;5054529;28;20687;-85
2022/01/22 13:16:16;;;;;;;10.50;6.97;;;6.20;54.30;;;;;;5051903;28;20060;-84
2022/01/22 13:18:58;;;;;;;9.32;6.60;;;6.00;54.10;;;;;;5035676;28;20051;-85
2022/01/22 13:21:31;;;;;;;12.13;7.35;;;5.70;54.10;;;;;;5019732;28;20052;-85
2022/01/22 13:24:07;;;;;;;11.73;7.53;;;5.60;54.50;;;;;;5053474;28;20468;-85
2022/01/22 13:26:44;;;;;;;10.80;8.32;;;5.80;54.60;;;;;;5020614;28;20049;-84
2022/01/22 13:29:30;;;;;;;12.55;7.53;;;5.50;55.20;;;;;;5053736;28;20120;-83
2022/01/22 13:32:00;;;;;;;9.90;6.60;;;5.30;55.30;;;;;;5053826;28;20041;-85
2022/01/22 13:34:38;;;;;;;9.13;6.22;;;5.10;54.80;;;;;;5053438;28;20444;-84
2022/01/22 13:48:32;;;;;;;11.13;6.53;;;4.60;54.40;;;;;;5035601;28;20045;-85
2022/01/22 13:51:01;;;;;;;9.85;6.45;;;4.70;54.80;;;;;;5035740;28;20393;-84
2022/01/22 13:53:30;;;;;;;10.00;6.97;;;4.80;55.50;;;;;;5035719;28;20091;-85
2022/01/22 13:55:57;;;;;;;12.02;6.65;;;4.70;55.30;;;;;;5035485;28;20041;-82
2022/01/22 13:58:25;;;;;;;11.52;7.32;;;4.60;55.80;;;;;;5019261;28;20180;-85
2022/01/22 14:00:53;;;;;;;10.40;6.97;;;4.50;55.50;;;;;;5019373;28;20140;-83
2022/01/22 14:03:44;;;;;;;12.57;8.70;;;4.50;55.20;;;;;;5052992;28;20041;-85
2022/01/22 14:06:12;;;;;;;12.02;8.02;;;4.50;55.90;;;;;;5052935;28;20057;-83
2022/01/22 14:08:40;;;;;;;11.15;7.65;;;4.40;56.10;;;;;;5034995;28;20060;-84
2022/01/22 14:11:11;;;;;;;9.13;6.30;;;4.30;55.80;;;;;;5035201;28;20052;-84
2022/01/22 14:13:43;;;;;;;10.38;7.00;;;4.40;55.40;;;;;;5035039;28;20047;-84
2022/01/22 14:16:12;;;;;;;11.48;6.75;;;4.40;55.80;;;;;;4999036;28;20136;-84
2022/01/22 14:18:40;;;;;;;12.57;7.63;;;4.50;55.20;;;;;;5015445;28;20041;-84
2022/01/22 14:21:19;;;;;;;14.45;7.97;;;4.60;55.70;;;;;;4999041;28;20095;-85
2022/01/22 14:23:52;;;;;;;13.15;8.00;;;4.70;55.80;;;;;;5015507;28;20084;-85
2022/01/22 14:26:27;;;;;;;10.25;7.07;;;4.70;55.50;;;;;;5015107;28;20099;-85
2022/01/22 14:29:01;;;;;;;10.23;7.40;;;4.70;55.60;;;;;;5015635;28;20541;-84
2022/01/22 14:31:35;;;;;;;15.75;8.73;;;4.70;56.30;;;;;;5015111;28;20161;-83
2022/01/22 14:34:34;;;;;;;17.85;8.88;;;4.80;57.20;;;;;;5033069;28;20087;-85
2022/01/22 14:37:03;;;;;;;14.88;8.90;;;4.80;57.50;;;;;;5006575;28;20409;-83
2022/01/22 14:45:33;;;;;;;8.20;5.82;;;4.70;58.70;;;;;;5014941;28;20061;-83
2022/01/22 14:48:04;;;;;;;8.27;5.68;;;4.70;58.80;;;;;;5014261;28;20049;-84
2022/01/22 14:50:32;;;;;;;6.07;5.18;;;4.40;58.90;;;;;;5014989;28;20144;-83
2022/01/22 14:53:01;;;;;;;5.57;4.68;;;3.80;61.20;;;;;;5032605;28;20041;-84
2022/01/22 14:55:29;;;;;;;5.97;5.00;;;3.70;61.30;;;;;;5014893;28;20072;-84
2022/01/22 14:57:57;;;;;;;7.03;5.35;;;3.90;61.60;;;;;;5014151;28;20053;-83
2022/01/22 15:00:41;;;;;;;8.60;5.95;;;4.10;63.40;;;;;;5014838;28;20041;-84
2022/01/22 15:03:28;;;;;;;7.22;5.30;;;4.10;66.10;;;;;;5031059;28;20065;-84
2022/01/22 15:05:55;;;;;;;8.55;4.93;;;4.10;69.80;;;;;;5014569;28;20037;-83
2022/01/22 15:08:23;;;;;;;7.25;5.00;;;3.80;71.60;;;;;;5014178;28;20582;-84
2022/01/22 15:10:50;;;;;;;8.43;4.70;;;3.70;73.20;;;;;;5032381;28;20045;-85
2022/01/22 15:13:24;;;;;;;5.50;4.90;;;3.70;75.50;;;;;;5032294;28;20046;-84
2022/01/22 15:15:58;;;;;;;8.10;5.53;;;3.60;77.90;;;;;;4997767;28;20381;-84
2022/01/22 15:18:50;;;;;;;6.32;4.93;;;3.50;81.30;;;;;;4998156;28;20397;-84
2022/01/22 15:21:13;;;;;;;6.93;5.22;;;3.50;85.70;;;;;;5013948;28;20107;-83
2022/01/22 15:23:41;;;;;;;6.20;5.10;;;3.50;91.30;;;;;;5014465;28;20053;-82